x

La Perouse Bank (46206) Wave Buoy

5:00 - Thu 21st Aug 2014 All times are PDT. -7 hours from GMT.

  • Sig Wave height 2.3ft
  • Peak Period 10s
  • Wind
    2mph, 4mph gusts
  • Sea Temp 58°f
  • Ar Temp 57°f
  • Sea Pressure 1017.2mb
  • La Perouse Bank
  • La Perouse Bank

More Historic Weather Station data

Upgrade to MSW Pro to gain access to the past 30 days of data for over 8000 Wavebouys and Weather Stations around the globe.

Join Pro

Comparision Forecast

View Surf forecast
   
Qui 08/21 5:00 2.5ft 10s 2 4 mph 1017.2mb 58f 57f
4:00 2.5ft 8s 4 7 mph 1017.3mb 58f 57f
3:00 2.5ft 8s 7 9 mph 1017.5mb 58f 56f
2:00 2.5ft 8s 7 9 mph 1017.6mb 57f 56f
1:00 2.5ft 15s 7 9 mph 1017.6mb 57f 55f
12:00 2.5ft 15s 7 9 mph 1017.5mb 57f 55f
11:00 2.5ft 8s 7 9 mph 1017.6mb 57f 56f
10:00 2.5ft 8s 4 7 mph 1017.4mb 56f 55f
9:00 2.5ft 9s 4 7 mph 1017.1mb 56f 55f
8:00 3ft 8s 4
mph
1017.1mb 56f 55f
7:00 2.5ft 7s 2 4 mph 1017.2mb 56f 56f
6:00 3ft 9s 7
mph
1017.1mb 55f 55f
5:00 3ft 8s 4
mph
1016.9mb 55f 55f
4:00 3ft 9s 2 4 mph 1017mb 57f 55f
3:00 3ft 9s 2 4 mph 1016.9mb 58f 58f
2:00 2.5ft 10s 4
mph
1017.1mb 59f 58f
1:00 3ft 10s 4 7 mph 1016.9mb 59f 58f
12:00 3ft 10s 7 9 mph 1016.6mb 60f 58f
Qua 08/20 11:00 3ft 8s 11 13 mph 1016.3mb 60f 58f
10:00 3ft 8s 11 13 mph 1016.2mb 60f 58f
9:00 3.5ft 7s 13
mph
1016.1mb 59f 58f
8:00 3ft 14s 13 16 mph 1015.9mb 59f 58f
7:00 3ft 9s 11 13 mph 1016.1mb 60f 58f
6:00 3.5ft 6s 11
mph
1016.1mb 60f 58f
5:00 3.5ft 9s 9
mph
1016.2mb 60f 59f
4:00 3.5ft 9s 7 9 mph 1016.2mb 60f 59f
3:00 3.5ft 9s 7 9 mph 1016.3mb 60f 59f
2:00 3.5ft 15s 2 4 mph 1016.2mb 59f 59f
1:00 3.5ft 7s 4 7 mph 1016mb 58f 58f
12:00 4ft 10s 7 9 mph 1015.4mb 56f 57f
11:00 4ft 7s 2 4 mph 1015.1mb 58f 56f
10:00 4.5ft 7s 7
mph
1014.6mb 56f 56f
9:00 4.5ft 7s 2 4 mph 1014.2mb 55f 56f
8:00 4.5ft 7s 4 7 mph 1013.5mb 56f 55f
7:00 5ft 8s 4 7 mph 1013.3mb 58f 56f
6:00 5ft 8s 7 11 mph 1012.5mb 58f 56f
5:00 5ft 7s 11 13 mph 1012mb 58f 56f
4:00 5ft 7s 9 13 mph 1011.7mb 58f 56f
3:00 5.5ft 7s 13 18 mph 1010.7mb 58f 56f
2:00 6.5ft 7s 9 13 mph 1010.7mb 58f 57f
1:00 6.5ft 8s 4
mph
1010.6mb 59f 58f
12:00 7ft 7s 7 9 mph 1010.4mb 59f 58f
Ter 08/19 11:00 6.5ft 8s 11 13 mph 1010.4mb 59f 58f
10:00 6.5ft 8s 11 16 mph 1010.3mb 59f 58f
9:00 6ft 7s 13 18 mph 1010.4mb 59f 58f
8:00 6.5ft 7s 16 18 mph 1010.4mb 59f 58f
7:00 6.5ft 7s 16 18 mph 1010.4mb 59f 59f
6:00 6.5ft 8s 16 18 mph 1010.3mb 59f 59f
5:00 6ft 7s 16 18 mph 1010.6mb 59f 59f
4:00 5.5ft 6s 18 22 mph 1010.7mb 58f 59f
3:00 5.5ft 6s 16 20 mph 1010.8mb 58f 59f
2:00 5.5ft 11s 16 18 mph 1011mb 58f 59f
1:00 5.5ft 11s 18 22 mph 1010.6mb 58f 59f
12:00 5.5ft 11s 20 22 mph 1010.6mb 58f 58f
11:00 6ft 11s 18 22 mph 1010.7mb 58f 58f
10:00 5.5ft 10s 20 22 mph 1010.8mb 58f 59f
9:00 6ft 11s 22 27 mph 1010.6mb 58f 59f
8:00 6.5ft 12s 18 22 mph 1010.6mb 58f 58f
7:00 7.5ft 6s 20 25 mph 1010.7mb 58f 58f
6:00 7ft 7s 27 31 mph 1010.3mb 58f 58f
5:00 7ft 7s 22 27 mph 1010.6mb 57f 59f
4:00 7ft 6s 22 29 mph 1010.4mb 57f 60f
3:00 7ft 6s 27 34 mph 1010.5mb 57f 59f
2:00 7ft 7s 25 29 mph 1010.8mb 58f 60f
1:00 7ft 7s 25 31 mph 1010.9mb 58f 61f
12:00 7ft 7s 27 31 mph 1010.7mb 59f 61f
Seg 08/18 11:00 6ft 7s 20 22 mph 1011.5mb 59f 61f
10:00 6ft 7s 22 29 mph 1011.3mb 59f 61f
9:00 5ft 7s 25 29 mph 1011.7mb 59f 62f
8:00 5ft 7s 20 25 mph 1012.2mb 59f 61f
7:00 4.5ft 7s 18 20 mph 1012.7mb 60f 61f
6:00 4.5ft 10s 13 18 mph 1013.4mb 60f 61f
5:00 4.5ft 10s 13 16 mph 1014.3mb 59f 60f
4:00 4ft 10s 11 13 mph 1015.1mb 60f 60f
3:00 4.5ft 9s 11 13 mph 1015.4mb 59f 60f
2:00 4ft 7s 9 11 mph 1015.9mb 61f 61f
1:00 4ft 11s 2 4 mph 1016.1mb 61f 61f
12:00 4ft 11s 2 4 mph 1016.5mb 60f 59f
11:00 4ft 6s 4
mph
1016.6mb 60f 57f
10:00 3.5ft 7s 4
mph
1016.7mb 59f 57f
9:00 4ft 7s 2
mph
1017.2mb 59f 56f
8:00 4ft 7s  -  2 mph 1017.2mb 59f 56f
7:00 4.5ft 8s 4
mph
1017.2mb 59f 54f
6:00 4.5ft 7s 7 9 mph 1017mb 59f 54f
5:00 4.5ft 7s 4 7 mph 1017.6mb 59f 55f
4:00 5ft 7s 4
mph
1017.8mb 59f 58f
3:00 4.5ft 7s 2 4 mph 1018mb 60f 59f
2:00 5ft 8s 4 7 mph 1018.1mb 60f 59f